Flag for USA

Past Weather in 41°54'58.7"N, 88°00'13.4"W, USA — Yesterday and Last 2 Weeks

Currently: 51 °F. Passing clouds. (Weather station: Chicago Midway Airport, USA). See more current weather

Past Weather in 41°54'58.7"N, 88°00'13.4"W — Graph

°F

41°54'58.7"N, 88°00'13.4"W Temperature Yesterday

Maximum temperature yesterday: 65 °F (at 1:53 pm)
Minimum temperature yesterday: 43 °F (at 4:53 am)
Average temperature yesterday: 54 °F

High & Low Weather Summary for the Past Weeks

 TemperatureHumidityPressure
High65 °F (Mar 8, 1:53 pm)97% (Feb 27, 7:09 am)30.47 "Hg (Feb 27, 7:09 am)
Low23 °F (Mar 2, 2:53 am)25% (Mar 3, 3:53 pm)29.63 "Hg (Feb 23, 2:53 am)
Average38 °F64%30.12 "Hg
* Reported Feb 21 10:53 pm — Mar 8 10:53 pm, 41°54'58.7"N, 88°00'13.4"W. Weather by CustomWeather, © 2021

Note: Actual official high and low records may vary slightly from our data, if they occured in-between our weather recording intervals... More about our weather records

41°54'58.7"N, 88°00'13.4"W Weather History for the Previous 24 Hours

Scroll right to see more
 ConditionsComfort  
Time TempWeatherWind HumidityBarometerVisibility
10:53 pm
Mon, Mar 8
51 °FPassing clouds.6 mph59%30.28 "Hg10 mi
9:53 pm51 °FPassing clouds.5 mph59%30.29 "Hg10 mi
8:53 pm54 °FPassing clouds.5 mph53%30.28 "Hg10 mi
7:53 pm57 °FPassing clouds.3 mph49%30.28 "Hg10 mi
6:53 pm57 °FPassing clouds.6 mph47%30.28 "Hg10 mi
5:53 pm60 °FPassing clouds.7 mph41%30.26 "Hg10 mi
4:53 pm62 °FPartly sunny.10 mph39%30.25 "Hg10 mi
3:53 pm65 °FPartly sunny.15 mph36%30.24 "Hg10 mi
2:53 pm65 °FScattered clouds.14 mph34%30.24 "Hg10 mi
1:53 pm65 °FScattered clouds.18 mph34%30.24 "Hg10 mi
12:53 pm64 °FPassing clouds.21 mph33%30.25 "Hg10 mi
11:53 am63 °FScattered clouds.20 mph33%30.27 "Hg10 mi
10:53 am60 °FPassing clouds.18 mph35%30.28 "Hg10 mi
9:53 am57 °FPassing clouds.17 mph37%30.28 "Hg10 mi
8:53 am53 °FScattered clouds.14 mph43%30.29 "Hg10 mi
7:53 am47 °FScattered clouds.12 mph54%30.29 "Hg10 mi
6:53 am43 °FScattered clouds.13 mph62%30.28 "Hg10 mi
5:53 am43 °FPassing clouds.12 mph60%30.29 "Hg10 mi
4:53 am43 °FPassing clouds.12 mph60%30.29 "Hg10 mi
3:53 am44 °FPassing clouds.13 mph55%30.29 "Hg10 mi
2:53 am44 °FPassing clouds.13 mph53%30.29 "Hg10 mi
1:53 am45 °FPassing clouds.13 mph51%30.32 "Hg10 mi
12:53 am46 °FPassing clouds.12 mph50%30.32 "Hg10 mi
Weather by CustomWeather, © 2021

See weather overview